Northwest Plaza, Missouri
Current Conditions -  °F | °C
As of 11:51 AM on Thursday 30 Oct 2014 (Local Time) from KSTL Reporting Station
Broken Clouds Broken Clouds  
Wind Chill: 56°   Ceiling: 25000
Heat Index: 56°   Visibility: 10mi
Dew Point: 39°   Wind: 8mph
Humidity: 53%   Direction: 190°S
Pressure: 30.11"   Gusts: NA
Location:  38.7263°N, 90.3885°W
Report Text: KSTL 301651Z 19007KT 10SM FEW100 BKN250 13/04 A3011 RMK AO2 RAE15 SLP199 P0000 T01330039
Loading
Personal Weather Stations






























Interactive Weather Map
Tropical Storm Tracking
New forecast layout! Learn more

10-Day Weather Forecast

Advertisements
Track Severe Weather on mobile